sensor_id;sensor_type;location;lat;lon;timestamp;temperature;humidity
7658;DHT22;8462;53.156;8.220;2022-07-23T00:00:18;19.20;70.20
7658;DHT22;8462;53.156;8.220;2022-07-23T00:02:46;19.20;70.10
7658;DHT22;8462;53.156;8.220;2022-07-23T00:05:13;19.20;70.30
7658;DHT22;8462;53.156;8.220;2022-07-23T00:07:40;19.10;71.10
7658;DHT22;8462;53.156;8.220;2022-07-23T00:10:08;19.10;71.00
7658;DHT22;8462;53.156;8.220;2022-07-23T00:12:35;19.10;70.70
7658;DHT22;8462;53.156;8.220;2022-07-23T00:15:03;19.00;71.00
7658;DHT22;8462;53.156;8.220;2022-07-23T00:17:31;19.00;70.80
7658;DHT22;8462;53.156;8.220;2022-07-23T00:19:59;19.00;70.90
7658;DHT22;8462;53.156;8.220;2022-07-23T00:22:26;18.90;70.90
7658;DHT22;8462;53.156;8.220;2022-07-23T00:24:54;18.90;71.00
7658;DHT22;8462;53.156;8.220;2022-07-23T00:27:21;18.90;72.20
7658;DHT22;8462;53.156;8.220;2022-07-23T00:29:49;18.90;71.20
7658;DHT22;8462;53.156;8.220;2022-07-23T00:32:16;18.90;71.20
7658;DHT22;8462;53.156;8.220;2022-07-23T00:34:42;18.90;71.40
7658;DHT22;8462;53.156;8.220;2022-07-23T00:37:11;19.00;71.60
7658;DHT22;8462;53.156;8.220;2022-07-23T00:39:38;18.90;71.10
7658;DHT22;8462;53.156;8.220;2022-07-23T00:42:05;18.90;72.70
7658;DHT22;8462;53.156;8.220;2022-07-23T00:44:31;18.90;71.50
7658;DHT22;8462;53.156;8.220;2022-07-23T00:46:59;18.80;71.40
7658;DHT22;8462;53.156;8.220;2022-07-23T00:49:28;18.80;71.40
7658;DHT22;8462;53.156;8.220;2022-07-23T00:51:55;18.70;71.90
7658;DHT22;8462;53.156;8.220;2022-07-23T00:54:26;18.70;72.30
7658;DHT22;8462;53.156;8.220;2022-07-23T00:56:53;18.70;73.30
7658;DHT22;8462;53.156;8.220;2022-07-23T00:59:20;18.70;72.80
7658;DHT22;8462;53.156;8.220;2022-07-23T01:01:47;18.80;72.70
7658;DHT22;8462;53.156;8.220;2022-07-23T01:04:14;18.70;72.80
7658;DHT22;8462;53.156;8.220;2022-07-23T01:06:43;18.70;72.80
7658;DHT22;8462;53.156;8.220;2022-07-23T01:09:10;18.80;73.00
7658;DHT22;8462;53.156;8.220;2022-07-23T01:11:39;18.80;72.80
7658;DHT22;8462;53.156;8.220;2022-07-23T01:14:13;18.80;73.20
7658;DHT22;8462;53.156;8.220;2022-07-23T01:16:40;18.80;73.30
7658;DHT22;8462;53.156;8.220;2022-07-23T01:19:07;18.80;73.00
7658;DHT22;8462;53.156;8.220;2022-07-23T01:21:36;18.80;73.30
7658;DHT22;8462;53.156;8.220;2022-07-23T01:24:06;18.80;73.00
7658;DHT22;8462;53.156;8.220;2022-07-23T01:26:42;18.80;73.10
7658;DHT22;8462;53.156;8.220;2022-07-23T01:29:10;18.80;73.50
7658;DHT22;8462;53.156;8.220;2022-07-23T01:31:38;18.80;73.80
7658;DHT22;8462;53.156;8.220;2022-07-23T01:34:05;18.80;73.70
7658;DHT22;8462;53.156;8.220;2022-07-23T01:36:32;18.80;74.10
7658;DHT22;8462;53.156;8.220;2022-07-23T01:39:00;18.70;73.80
7658;DHT22;8462;53.156;8.220;2022-07-23T01:41:28;18.70;73.50
7658;DHT22;8462;53.156;8.220;2022-07-23T01:43:56;18.70;74.20
7658;DHT22;8462;53.156;8.220;2022-07-23T01:46:23;18.70;74.50
7658;DHT22;8462;53.156;8.220;2022-07-23T01:48:50;18.70;74.50
7658;DHT22;8462;53.156;8.220;2022-07-23T01:51:34;18.70;74.50
7658;DHT22;8462;53.156;8.220;2022-07-23T01:54:08;18.70;74.50
7658;DHT22;8462;53.156;8.220;2022-07-23T01:56:36;18.70;74.30
7658;DHT22;8462;53.156;8.220;2022-07-23T01:59:03;18.60;74.40
7658;DHT22;8462;53.156;8.220;2022-07-23T02:01:30;18.60;75.10
7658;DHT22;8462;53.156;8.220;2022-07-23T02:03:57;18.50;74.70
7658;DHT22;8462;53.156;8.220;2022-07-23T02:06:24;18.50;75.30
7658;DHT22;8462;53.156;8.220;2022-07-23T02:08:51;18.40;74.80
7658;DHT22;8462;53.156;8.220;2022-07-23T02:11:18;18.40;74.60
7658;DHT22;8462;53.156;8.220;2022-07-23T02:13:46;18.40;74.80
7658;DHT22;8462;53.156;8.220;2022-07-23T02:16:13;18.30;74.80
7658;DHT22;8462;53.156;8.220;2022-07-23T02:18:40;18.20;75.30
7658;DHT22;8462;53.156;8.220;2022-07-23T02:21:07;18.20;75.70
7658;DHT22;8462;53.156;8.220;2022-07-23T02:23:34;18.10;76.10
7658;DHT22;8462;53.156;8.220;2022-07-23T02:26:01;18.10;76.00
7658;DHT22;8462;53.156;8.220;2022-07-23T02:28:28;18.10;76.40
7658;DHT22;8462;53.156;8.220;2022-07-23T02:30:57;18.20;76.30
7658;DHT22;8462;53.156;8.220;2022-07-23T02:33:24;18.20;76.00
7658;DHT22;8462;53.156;8.220;2022-07-23T02:35:51;18.20;77.00
7658;DHT22;8462;53.156;8.220;2022-07-23T02:38:19;18.20;75.80
7658;DHT22;8462;53.156;8.220;2022-07-23T02:40:46;18.10;75.80
7658;DHT22;8462;53.156;8.220;2022-07-23T02:43:13;18.10;75.70
7658;DHT22;8462;53.156;8.220;2022-07-23T02:45:41;18.00;76.10
7658;DHT22;8462;53.156;8.220;2022-07-23T02:48:10;18.00;76.30
7658;DHT22;8462;53.156;8.220;2022-07-23T02:50:38;18.00;76.20
7658;DHT22;8462;53.156;8.220;2022-07-23T02:53:06;18.00;76.30
7658;DHT22;8462;53.156;8.220;2022-07-23T02:55:33;17.90;76.00
7658;DHT22;8462;53.156;8.220;2022-07-23T02:58:01;17.90;76.00
7658;DHT22;8462;53.156;8.220;2022-07-23T03:00:28;17.80;76.40
7658;DHT22;8462;53.156;8.220;2022-07-23T03:02:55;17.80;76.60
7658;DHT22;8462;53.156;8.220;2022-07-23T03:05:23;17.80;76.70
7658;DHT22;8462;53.156;8.220;2022-07-23T03:07:50;17.80;76.80
7658;DHT22;8462;53.156;8.220;2022-07-23T03:10:17;17.70;76.60
7658;DHT22;8462;53.156;8.220;2022-07-23T03:12:44;17.70;76.90
7658;DHT22;8462;53.156;8.220;2022-07-23T03:15:11;17.70;77.10
7658;DHT22;8462;53.156;8.220;2022-07-23T03:17:38;17.70;76.60
7658;DHT22;8462;53.156;8.220;2022-07-23T03:20:06;17.70;76.20
7658;DHT22;8462;53.156;8.220;2022-07-23T03:22:35;17.70;76.40
7658;DHT22;8462;53.156;8.220;2022-07-23T03:25:03;17.60;76.60
7658;DHT22;8462;53.156;8.220;2022-07-23T03:27:34;17.60;76.70
7658;DHT22;8462;53.156;8.220;2022-07-23T03:30:01;17.60;76.80
7658;DHT22;8462;53.156;8.220;2022-07-23T03:32:28;17.60;76.90
7658;DHT22;8462;53.156;8.220;2022-07-23T03:34:56;17.60;76.60
7658;DHT22;8462;53.156;8.220;2022-07-23T03:37:23;17.60;76.50
7658;DHT22;8462;53.156;8.220;2022-07-23T03:39:52;17.50;76.60
7658;DHT22;8462;53.156;8.220;2022-07-23T03:42:19;17.50;76.70
7658;DHT22;8462;53.156;8.220;2022-07-23T03:44:46;17.50;76.80
7658;DHT22;8462;53.156;8.220;2022-07-23T03:47:13;17.50;76.90
7658;DHT22;8462;53.156;8.220;2022-07-23T03:49:40;17.40;76.80
7658;DHT22;8462;53.156;8.220;2022-07-23T03:52:07;17.30;77.40
7658;DHT22;8462;53.156;8.220;2022-07-23T03:54:34;17.30;78.10
7658;DHT22;8462;53.156;8.220;2022-07-23T03:57:02;17.30;77.50
7658;DHT22;8462;53.156;8.220;2022-07-23T03:59:29;17.30;77.60
7658;DHT22;8462;53.156;8.220;2022-07-23T04:01:56;17.20;78.10
7658;DHT22;8462;53.156;8.220;2022-07-23T04:04:24;17.20;78.30
7658;DHT22;8462;53.156;8.220;2022-07-23T04:06:51;17.10;78.20
7658;DHT22;8462;53.156;8.220;2022-07-23T04:09:18;17.10;78.70
7658;DHT22;8462;53.156;8.220;2022-07-23T04:11:45;17.10;79.00
7658;DHT22;8462;53.156;8.220;2022-07-23T04:14:13;17.10;79.00
7658;DHT22;8462;53.156;8.220;2022-07-23T04:16:40;17.00;79.10
7658;DHT22;8462;53.156;8.220;2022-07-23T04:19:07;17.00;79.60
7658;DHT22;8462;53.156;8.220;2022-07-23T04:21:44;17.00;79.10
7658;DHT22;8462;53.156;8.220;2022-07-23T04:24:11;17.00;79.10
7658;DHT22;8462;53.156;8.220;2022-07-23T04:26:40;17.00;79.10
7658;DHT22;8462;53.156;8.220;2022-07-23T04:29:07;17.00;79.10
7658;DHT22;8462;53.156;8.220;2022-07-23T04:31:35;17.10;79.00
7658;DHT22;8462;53.156;8.220;2022-07-23T04:34:03;17.00;80.10
7658;DHT22;8462;53.156;8.220;2022-07-23T04:36:30;17.00;79.40
7658;DHT22;8462;53.156;8.220;2022-07-23T04:38:57;17.10;79.30
7658;DHT22;8462;53.156;8.220;2022-07-23T04:41:25;17.20;79.00
7658;DHT22;8462;53.156;8.220;2022-07-23T04:43:51;17.20;79.00
7658;DHT22;8462;53.156;8.220;2022-07-23T04:46:19;17.20;78.70
7658;DHT22;8462;53.156;8.220;2022-07-23T04:48:49;17.30;78.80
7658;DHT22;8462;53.156;8.220;2022-07-23T04:51:17;17.30;78.90
7658;DHT22;8462;53.156;8.220;2022-07-23T04:53:44;17.50;78.60
7658;DHT22;8462;53.156;8.220;2022-07-23T04:56:11;17.60;78.50
7658;DHT22;8462;53.156;8.220;2022-07-23T04:58:38;17.70;78.00
7658;DHT22;8462;53.156;8.220;2022-07-23T05:01:05;17.90;77.60
7658;DHT22;8462;53.156;8.220;2022-07-23T05:03:34;18.00;77.00
7658;DHT22;8462;53.156;8.220;2022-07-23T05:06:03;18.20;76.60
7658;DHT22;8462;53.156;8.220;2022-07-23T05:08:30;18.40;76.60
7658;DHT22;8462;53.156;8.220;2022-07-23T05:10:58;18.70;76.00
7658;DHT22;8462;53.156;8.220;2022-07-23T05:13:25;19.00;75.40
7658;DHT22;8462;53.156;8.220;2022-07-23T05:15:53;19.70;76.20
7658;DHT22;8462;53.156;8.220;2022-07-23T05:18:20;20.60;72.10
7658;DHT22;8462;53.156;8.220;2022-07-23T05:20:48;21.30;68.40
7658;DHT22;8462;53.156;8.220;2022-07-23T05:23:19;22.00;67.00
7658;DHT22;8462;53.156;8.220;2022-07-23T05:25:48;23.10;63.30
7658;DHT22;8462;53.156;8.220;2022-07-23T05:28:16;24.00;62.20
7658;DHT22;8462;53.156;8.220;2022-07-23T05:30:43;25.00;59.80
7658;DHT22;8462;53.156;8.220;2022-07-23T05:33:13;25.70;57.20
7658;DHT22;8462;53.156;8.220;2022-07-23T05:35:40;26.50;55.00
7658;DHT22;8462;53.156;8.220;2022-07-23T05:38:19;27.10;54.00
7658;DHT22;8462;53.156;8.220;2022-07-23T05:40:47;27.80;51.70
7658;DHT22;8462;53.156;8.220;2022-07-23T05:43:14;28.20;51.30
7658;DHT22;8462;53.156;8.220;2022-07-23T05:45:41;28.70;49.70
7658;DHT22;8462;53.156;8.220;2022-07-23T05:48:09;29.10;48.50
7658;DHT22;8462;53.156;8.220;2022-07-23T05:50:43;29.40;47.10
7658;DHT22;8462;53.156;8.220;2022-07-23T05:53:22;29.80;46.50
7658;DHT22;8462;53.156;8.220;2022-07-23T05:56:05;30.10;46.00
7658;DHT22;8462;53.156;8.220;2022-07-23T05:58:32;30.40;44.30
7658;DHT22;8462;53.156;8.220;2022-07-23T06:00:59;30.50;43.00
7658;DHT22;8462;53.156;8.220;2022-07-23T06:03:28;30.40;43.00
7658;DHT22;8462;53.156;8.220;2022-07-23T06:05:55;30.50;42.90
7658;DHT22;8462;53.156;8.220;2022-07-23T06:08:25;30.40;42.60
7658;DHT22;8462;53.156;8.220;2022-07-23T06:10:52;30.10;43.40
7658;DHT22;8462;53.156;8.220;2022-07-23T06:13:19;29.90;43.20
7658;DHT22;8462;53.156;8.220;2022-07-23T06:15:46;29.50;43.50
7658;DHT22;8462;53.156;8.220;2022-07-23T06:18:13;28.70;43.80
7658;DHT22;8462;53.156;8.220;2022-07-23T06:20:40;27.60;45.80
7658;DHT22;8462;53.156;8.220;2022-07-23T06:23:07;26.60;47.30
7658;DHT22;8462;53.156;8.220;2022-07-23T06:25:35;25.80;49.00
7658;DHT22;8462;53.156;8.220;2022-07-23T06:28:04;25.00;50.50
7658;DHT22;8462;53.156;8.220;2022-07-23T06:30:31;24.40;52.20
7658;DHT22;8462;53.156;8.220;2022-07-23T06:32:58;23.80;53.80
7658;DHT22;8462;53.156;8.220;2022-07-23T06:35:25;23.40;54.80
7658;DHT22;8462;53.156;8.220;2022-07-23T06:37:52;23.00;56.10
7658;DHT22;8462;53.156;8.220;2022-07-23T06:40:19;22.70;57.00
7658;DHT22;8462;53.156;8.220;2022-07-23T06:42:47;22.30;58.10
7658;DHT22;8462;53.156;8.220;2022-07-23T06:45:20;22.10;58.90
7658;DHT22;8462;53.156;8.220;2022-07-23T06:47:47;21.90;60.00
7658;DHT22;8462;53.156;8.220;2022-07-23T06:50:14;21.70;60.80
7658;DHT22;8462;53.156;8.220;2022-07-23T06:52:42;21.60;61.20
7658;DHT22;8462;53.156;8.220;2022-07-23T06:55:09;21.40;61.70
7658;DHT22;8462;53.156;8.220;2022-07-23T06:57:37;21.30;62.30
7658;DHT22;8462;53.156;8.220;2022-07-23T07:00:08;21.40;62.40
7658;DHT22;8462;53.156;8.220;2022-07-23T07:02:35;21.40;62.30
7658;DHT22;8462;53.156;8.220;2022-07-23T07:05:03;21.30;62.80
7658;DHT22;8462;53.156;8.220;2022-07-23T07:07:30;21.30;63.90
7658;DHT22;8462;53.156;8.220;2022-07-23T07:09:57;21.10;62.80
7658;DHT22;8462;53.156;8.220;2022-07-23T07:12:24;21.00;63.10
7658;DHT22;8462;53.156;8.220;2022-07-23T07:14:50;20.80;64.20
7658;DHT22;8462;53.156;8.220;2022-07-23T07:17:20;20.60;64.10
7658;DHT22;8462;53.156;8.220;2022-07-23T07:19:47;20.50;64.50
7658;DHT22;8462;53.156;8.220;2022-07-23T07:22:14;20.40;65.10
7658;DHT22;8462;53.156;8.220;2022-07-23T07:24:41;20.30;65.60
7658;DHT22;8462;53.156;8.220;2022-07-23T07:27:08;20.20;66.30
7658;DHT22;8462;53.156;8.220;2022-07-23T07:29:36;20.10;66.80
7658;DHT22;8462;53.156;8.220;2022-07-23T07:32:03;20.10;67.50
7658;DHT22;8462;53.156;8.220;2022-07-23T07:34:31;20.10;67.60
7658;DHT22;8462;53.156;8.220;2022-07-23T07:36:58;20.10;69.10
7658;DHT22;8462;53.156;8.220;2022-07-23T07:39:25;20.20;68.10
7658;DHT22;8462;53.156;8.220;2022-07-23T07:41:52;20.40;67.70
7658;DHT22;8462;53.156;8.220;2022-07-23T07:44:19;20.60;66.70
7658;DHT22;8462;53.156;8.220;2022-07-23T07:46:46;20.70;66.40
7658;DHT22;8462;53.156;8.220;2022-07-23T07:49:13;20.80;65.40
7658;DHT22;8462;53.156;8.220;2022-07-23T07:51:41;21.00;65.90
7658;DHT22;8462;53.156;8.220;2022-07-23T07:54:08;21.00;65.50
7658;DHT22;8462;53.156;8.220;2022-07-23T07:56:35;21.10;65.20
7658;DHT22;8462;53.156;8.220;2022-07-23T07:59:02;21.10;64.80
7658;DHT22;8462;53.156;8.220;2022-07-23T08:01:28;21.10;64.50
7658;DHT22;8462;53.156;8.220;2022-07-23T08:03:55;21.00;64.50
7658;DHT22;8462;53.156;8.220;2022-07-23T08:06:22;21.20;65.00
7658;DHT22;8462;53.156;8.220;2022-07-23T08:08:50;21.30;64.50
7658;DHT22;8462;53.156;8.220;2022-07-23T08:11:17;21.30;64.40
7658;DHT22;8462;53.156;8.220;2022-07-23T08:13:44;21.40;64.60
7658;DHT22;8462;53.156;8.220;2022-07-23T08:16:11;21.70;64.00
7658;DHT22;8462;53.156;8.220;2022-07-23T08:18:38;21.90;63.20
7658;DHT22;8462;53.156;8.220;2022-07-23T08:21:05;22.10;62.20
7658;DHT22;8462;53.156;8.220;2022-07-23T08:23:32;22.20;62.20
7658;DHT22;8462;53.156;8.220;2022-07-23T08:26:01;22.30;61.50
7658;DHT22;8462;53.156;8.220;2022-07-23T08:28:28;22.40;59.90
7658;DHT22;8462;53.156;8.220;2022-07-23T08:30:58;22.50;59.70
7658;DHT22;8462;53.156;8.220;2022-07-23T08:33:26;22.80;59.60
7658;DHT22;8462;53.156;8.220;2022-07-23T08:35:53;22.80;58.70
7658;DHT22;8462;53.156;8.220;2022-07-23T08:38:22;22.90;59.40
7658;DHT22;8462;53.156;8.220;2022-07-23T08:40:51;23.10;58.90
7658;DHT22;8462;53.156;8.220;2022-07-23T08:43:21;23.40;58.90
7658;DHT22;8462;53.156;8.220;2022-07-23T08:45:51;23.60;57.00
7658;DHT22;8462;53.156;8.220;2022-07-23T08:48:20;23.80;55.60
7658;DHT22;8462;53.156;8.220;2022-07-23T08:50:49;24.00;54.50
7658;DHT22;8462;53.156;8.220;2022-07-23T08:53:17;24.20;53.20
7658;DHT22;8462;53.156;8.220;2022-07-23T08:55:45;24.40;52.90
7658;DHT22;8462;53.156;8.220;2022-07-23T08:58:13;24.30;52.40
7658;DHT22;8462;53.156;8.220;2022-07-23T09:00:42;24.30;52.50
7658;DHT22;8462;53.156;8.220;2022-07-23T09:03:15;24.40;53.40
7658;DHT22;8462;53.156;8.220;2022-07-23T09:05:42;24.50;53.10
7658;DHT22;8462;53.156;8.220;2022-07-23T09:08:11;24.60;51.50
7658;DHT22;8462;53.156;8.220;2022-07-23T09:10:46;24.60;51.50
7658;DHT22;8462;53.156;8.220;2022-07-23T09:13:34;24.60;49.90
7658;DHT22;8462;53.156;8.220;2022-07-23T09:16:06;24.70;50.40
7658;DHT22;8462;53.156;8.220;2022-07-23T09:18:42;25.00;50.30
7658;DHT22;8462;53.156;8.220;2022-07-23T09:21:18;25.10;49.00
7658;DHT22;8462;53.156;8.220;2022-07-23T09:23:49;25.10;49.50
7658;DHT22;8462;53.156;8.220;2022-07-23T09:26:25;25.00;49.30
7658;DHT22;8462;53.156;8.220;2022-07-23T09:28:57;24.80;49.10
7658;DHT22;8462;53.156;8.220;2022-07-23T09:31:31;24.50;49.80
7658;DHT22;8462;53.156;8.220;2022-07-23T09:34:21;24.40;50.70
7658;DHT22;8462;53.156;8.220;2022-07-23T09:36:49;24.50;51.40
7658;DHT22;8462;53.156;8.220;2022-07-23T09:39:24;24.60;50.90
7658;DHT22;8462;53.156;8.220;2022-07-23T09:41:52;24.50;50.90
7658;DHT22;8462;53.156;8.220;2022-07-23T09:44:20;24.40;51.00
7658;DHT22;8462;53.156;8.220;2022-07-23T09:46:49;24.40;51.50
7658;DHT22;8462;53.156;8.220;2022-07-23T09:49:18;24.40;51.90
7658;DHT22;8462;53.156;8.220;2022-07-23T09:51:51;24.50;51.80
7658;DHT22;8462;53.156;8.220;2022-07-23T09:54:29;24.30;51.00
7658;DHT22;8462;53.156;8.220;2022-07-23T09:56:59;24.10;52.20
7658;DHT22;8462;53.156;8.220;2022-07-23T09:59:27;24.10;52.60
7658;DHT22;8462;53.156;8.220;2022-07-23T10:01:57;24.20;52.60
7658;DHT22;8462;53.156;8.220;2022-07-23T10:04:26;24.40;51.70
7658;DHT22;8462;53.156;8.220;2022-07-23T10:07:17;24.50;49.40
7658;DHT22;8462;53.156;8.220;2022-07-23T10:10:06;24.40;49.80
7658;DHT22;8462;53.156;8.220;2022-07-23T10:12:53;24.40;49.80
7658;DHT22;8462;53.156;8.220;2022-07-23T10:15:50;24.40;50.20
7658;DHT22;8462;53.156;8.220;2022-07-23T10:18:18;24.40;50.40
7658;DHT22;8462;53.156;8.220;2022-07-23T10:20:47;24.50;50.40
7658;DHT22;8462;53.156;8.220;2022-07-23T10:23:18;24.50;49.80
7658;DHT22;8462;53.156;8.220;2022-07-23T10:25:54;24.60;49.90
7658;DHT22;8462;53.156;8.220;2022-07-23T10:28:47;24.70;49.10
7658;DHT22;8462;53.156;8.220;2022-07-23T10:31:28;25.00;49.00
7658;DHT22;8462;53.156;8.220;2022-07-23T10:34:07;25.10;47.70
7658;DHT22;8462;53.156;8.220;2022-07-23T10:36:42;25.10;47.70
7658;DHT22;8462;53.156;8.220;2022-07-23T10:39:14;25.20;47.50
7658;DHT22;8462;53.156;8.220;2022-07-23T10:41:43;25.20;47.00
7658;DHT22;8462;53.156;8.220;2022-07-23T10:44:11;25.20;46.80
7658;DHT22;8462;53.156;8.220;2022-07-23T10:46:58;25.30;46.90
7658;DHT22;8462;53.156;8.220;2022-07-23T10:49:41;25.50;46.60
7658;DHT22;8462;53.156;8.220;2022-07-23T10:52:25;25.70;46.20
7658;DHT22;8462;53.156;8.220;2022-07-23T10:54:54;25.90;46.10
7658;DHT22;8462;53.156;8.220;2022-07-23T10:57:22;25.90;45.50
7658;DHT22;8462;53.156;8.220;2022-07-23T11:00:11;25.70;45.70
7658;DHT22;8462;53.156;8.220;2022-07-23T11:02:40;25.60;45.80
7658;DHT22;8462;53.156;8.220;2022-07-23T11:05:10;25.30;46.00
7658;DHT22;8462;53.156;8.220;2022-07-23T11:08:10;25.30;46.90
7658;DHT22;8462;53.156;8.220;2022-07-23T11:10:42;25.40;46.10
7658;DHT22;8462;53.156;8.220;2022-07-23T11:13:30;25.30;46.00
7658;DHT22;8462;53.156;8.220;2022-07-23T11:16:04;25.50;46.70
7658;DHT22;8462;53.156;8.220;2022-07-23T11:18:55;25.80;46.00
7658;DHT22;8462;53.156;8.220;2022-07-23T11:21:42;25.90;45.40
7658;DHT22;8462;53.156;8.220;2022-07-23T11:24:10;25.80;44.90
7658;DHT22;8462;53.156;8.220;2022-07-23T11:26:48;25.80;45.10
7658;DHT22;8462;53.156;8.220;2022-07-23T11:29:37;25.80;46.00
7658;DHT22;8462;53.156;8.220;2022-07-23T11:32:05;25.70;44.80
7658;DHT22;8462;53.156;8.220;2022-07-23T11:34:34;25.70;44.90
7658;DHT22;8462;53.156;8.220;2022-07-23T11:37:04;25.60;44.70
7658;DHT22;8462;53.156;8.220;2022-07-23T11:39:32;25.60;44.90
7658;DHT22;8462;53.156;8.220;2022-07-23T11:42:01;25.60;44.60
7658;DHT22;8462;53.156;8.220;2022-07-23T11:44:33;25.70;43.70
7658;DHT22;8462;53.156;8.220;2022-07-23T11:47:02;25.60;44.60
7658;DHT22;8462;53.156;8.220;2022-07-23T11:49:30;25.70;43.90
7658;DHT22;8462;53.156;8.220;2022-07-23T11:52:05;25.90;43.30
7658;DHT22;8462;53.156;8.220;2022-07-23T11:54:34;26.20;42.50
7658;DHT22;8462;53.156;8.220;2022-07-23T11:57:02;26.10;42.40
7658;DHT22;8462;53.156;8.220;2022-07-23T11:59:32;26.00;43.00
7658;DHT22;8462;53.156;8.220;2022-07-23T12:02:01;25.80;43.50
7658;DHT22;8462;53.156;8.220;2022-07-23T12:04:37;25.70;44.00
7658;DHT22;8462;53.156;8.220;2022-07-23T12:07:25;25.60;43.40
7658;DHT22;8462;53.156;8.220;2022-07-23T12:09:53;25.60;43.20
7658;DHT22;8462;53.156;8.220;2022-07-23T12:12:20;25.40;43.40
7658;DHT22;8462;53.156;8.220;2022-07-23T12:14:49;25.20;43.80
7658;DHT22;8462;53.156;8.220;2022-07-23T12:17:16;25.00;44.30
7658;DHT22;8462;53.156;8.220;2022-07-23T12:19:43;24.80;45.00
7658;DHT22;8462;53.156;8.220;2022-07-23T12:22:12;24.80;45.50
7658;DHT22;8462;53.156;8.220;2022-07-23T12:24:59;24.80;45.10
7658;DHT22;8462;53.156;8.220;2022-07-23T12:27:27;24.80;44.90
7658;DHT22;8462;53.156;8.220;2022-07-23T12:29:54;25.00;44.50
7658;DHT22;8462;53.156;8.220;2022-07-23T12:32:22;25.30;44.20
7658;DHT22;8462;53.156;8.220;2022-07-23T12:34:51;25.60;44.60
7658;DHT22;8462;53.156;8.220;2022-07-23T12:37:32;25.90;43.30
7658;DHT22;8462;53.156;8.220;2022-07-23T12:40:27;26.10;43.10
7658;DHT22;8462;53.156;8.220;2022-07-23T12:42:57;26.00;42.90
7658;DHT22;8462;53.156;8.220;2022-07-23T12:45:25;26.10;42.80
7658;DHT22;8462;53.156;8.220;2022-07-23T12:47:58;26.20;43.00
7658;DHT22;8462;53.156;8.220;2022-07-23T12:50:37;26.30;42.60
7658;DHT22;8462;53.156;8.220;2022-07-23T12:53:08;26.30;42.60
7658;DHT22;8462;53.156;8.220;2022-07-23T12:55:37;26.20;42.80
7658;DHT22;8462;53.156;8.220;2022-07-23T12:58:06;26.20;43.60
7658;DHT22;8462;53.156;8.220;2022-07-23T13:00:58;26.30;43.70
7658;DHT22;8462;53.156;8.220;2022-07-23T13:03:28;26.40;43.40
7658;DHT22;8462;53.156;8.220;2022-07-23T13:05:56;26.50;44.00
7658;DHT22;8462;53.156;8.220;2022-07-23T13:08:25;26.50;43.50
7658;DHT22;8462;53.156;8.220;2022-07-23T13:10:53;26.50;43.10
7658;DHT22;8462;53.156;8.220;2022-07-23T13:13:22;26.40;43.20
7658;DHT22;8462;53.156;8.220;2022-07-23T13:15:50;26.30;42.60
7658;DHT22;8462;53.156;8.220;2022-07-23T13:18:17;26.30;42.90
7658;DHT22;8462;53.156;8.220;2022-07-23T13:20:47;26.30;42.90
7658;DHT22;8462;53.156;8.220;2022-07-23T13:23:14;26.30;43.60
7658;DHT22;8462;53.156;8.220;2022-07-23T13:25:44;26.10;43.80
7658;DHT22;8462;53.156;8.220;2022-07-23T13:28:11;25.90;43.70
7658;DHT22;8462;53.156;8.220;2022-07-23T13:30:39;25.90;43.50
7658;DHT22;8462;53.156;8.220;2022-07-23T13:33:07;25.70;43.90
7658;DHT22;8462;53.156;8.220;2022-07-23T13:35:34;25.60;44.50
7658;DHT22;8462;53.156;8.220;2022-07-23T13:38:02;25.50;44.80
7658;DHT22;8462;53.156;8.220;2022-07-23T13:40:29;25.30;45.60
7658;DHT22;8462;53.156;8.220;2022-07-23T13:42:57;25.20;44.80
7658;DHT22;8462;53.156;8.220;2022-07-23T13:45:24;25.10;45.00
7658;DHT22;8462;53.156;8.220;2022-07-23T13:47:51;25.00;45.00
7658;DHT22;8462;53.156;8.220;2022-07-23T13:50:18;25.00;45.10
7658;DHT22;8462;53.156;8.220;2022-07-23T13:52:45;25.10;44.90
7658;DHT22;8462;53.156;8.220;2022-07-23T13:55:12;25.20;44.60
7658;DHT22;8462;53.156;8.220;2022-07-23T13:57:39;25.30;45.00
7658;DHT22;8462;53.156;8.220;2022-07-23T14:00:09;25.50;45.30
7658;DHT22;8462;53.156;8.220;2022-07-23T14:02:39;25.60;46.10
7658;DHT22;8462;53.156;8.220;2022-07-23T14:05:08;25.40;45.00
7658;DHT22;8462;53.156;8.220;2022-07-23T14:07:35;25.20;45.10
7658;DHT22;8462;53.156;8.220;2022-07-23T14:10:03;25.20;46.10
7658;DHT22;8462;53.156;8.220;2022-07-23T14:12:31;25.20;45.80
7658;DHT22;8462;53.156;8.220;2022-07-23T14:14:58;25.20;45.60
7658;DHT22;8462;53.156;8.220;2022-07-23T14:17:26;25.30;45.50
7658;DHT22;8462;53.156;8.220;2022-07-23T14:19:53;25.30;44.90
7658;DHT22;8462;53.156;8.220;2022-07-23T14:22:20;25.30;45.00
7658;DHT22;8462;53.156;8.220;2022-07-23T14:24:47;25.30;44.70
7658;DHT22;8462;53.156;8.220;2022-07-23T14:27:14;25.30;44.90
7658;DHT22;8462;53.156;8.220;2022-07-23T14:29:41;25.40;44.40
7658;DHT22;8462;53.156;8.220;2022-07-23T14:32:08;25.50;44.60
7658;DHT22;8462;53.156;8.220;2022-07-23T14:34:37;25.70;44.90
7658;DHT22;8462;53.156;8.220;2022-07-23T14:37:03;25.80;44.00
7658;DHT22;8462;53.156;8.220;2022-07-23T14:39:30;25.90;43.40
7658;DHT22;8462;53.156;8.220;2022-07-23T14:41:57;26.00;43.60
7658;DHT22;8462;53.156;8.220;2022-07-23T14:44:24;26.10;44.10
7658;DHT22;8462;53.156;8.220;2022-07-23T14:46:55;26.00;43.90
7658;DHT22;8462;53.156;8.220;2022-07-23T14:49:22;25.90;44.30
7658;DHT22;8462;53.156;8.220;2022-07-23T14:51:50;25.70;44.40
7658;DHT22;8462;53.156;8.220;2022-07-23T14:54:17;25.60;44.80
7658;DHT22;8462;53.156;8.220;2022-07-23T14:56:45;25.40;45.20
7658;DHT22;8462;53.156;8.220;2022-07-23T14:59:13;25.30;45.80
7658;DHT22;8462;53.156;8.220;2022-07-23T15:01:40;25.10;46.00
7658;DHT22;8462;53.156;8.220;2022-07-23T15:04:07;24.90;46.10
7658;DHT22;8462;53.156;8.220;2022-07-23T15:06:34;24.80;46.90
7658;DHT22;8462;53.156;8.220;2022-07-23T15:09:02;24.70;46.60
7658;DHT22;8462;53.156;8.220;2022-07-23T15:11:30;24.50;47.10
7658;DHT22;8462;53.156;8.220;2022-07-23T15:13:59;24.30;47.50
7658;DHT22;8462;53.156;8.220;2022-07-23T15:16:26;24.20;47.10
7658;DHT22;8462;53.156;8.220;2022-07-23T15:18:53;24.20;47.40
7658;DHT22;8462;53.156;8.220;2022-07-23T15:21:21;24.20;47.80
7658;DHT22;8462;53.156;8.220;2022-07-23T15:23:48;24.30;48.20
7658;DHT22;8462;53.156;8.220;2022-07-23T15:26:17;24.30;47.30
7658;DHT22;8462;53.156;8.220;2022-07-23T15:28:44;24.20;47.40
7658;DHT22;8462;53.156;8.220;2022-07-23T15:31:21;24.20;48.30
7658;DHT22;8462;53.156;8.220;2022-07-23T15:33:58;24.10;49.00
7658;DHT22;8462;53.156;8.220;2022-07-23T15:36:25;24.10;48.90
7658;DHT22;8462;53.156;8.220;2022-07-23T15:38:52;24.00;48.70
7658;DHT22;8462;53.156;8.220;2022-07-23T15:41:25;24.00;48.90
7658;DHT22;8462;53.156;8.220;2022-07-23T15:43:52;24.00;48.80
7658;DHT22;8462;53.156;8.220;2022-07-23T15:46:45;23.90;49.00
7658;DHT22;8462;53.156;8.220;2022-07-23T15:49:13;23.90;49.80
7658;DHT22;8462;53.156;8.220;2022-07-23T15:51:50;23.90;50.40
7658;DHT22;8462;53.156;8.220;2022-07-23T15:54:27;24.00;49.90
7658;DHT22;8462;53.156;8.220;2022-07-23T15:56:56;24.00;49.50
7658;DHT22;8462;53.156;8.220;2022-07-23T15:59:23;24.10;49.60
7658;DHT22;8462;53.156;8.220;2022-07-23T16:01:50;24.10;49.70
7658;DHT22;8462;53.156;8.220;2022-07-23T16:04:17;24.00;50.30
7658;DHT22;8462;53.156;8.220;2022-07-23T16:06:46;24.00;50.00
7658;DHT22;8462;53.156;8.220;2022-07-23T16:09:13;24.00;50.40
7658;DHT22;8462;53.156;8.220;2022-07-23T16:11:41;24.00;50.10
7658;DHT22;8462;53.156;8.220;2022-07-23T16:14:09;24.00;50.40
7658;DHT22;8462;53.156;8.220;2022-07-23T16:16:40;24.00;50.00